Time;durP1;ratioP1;P1;durP2;ratioP2;P2;SDS_P1;SDS_P2;PMS_P1;PMS_P2;Temp;Humidity;BMP_temperature;BMP_pressure;BME280_temperature;BME280_humidity;BME280_pressure;Samples;Min_cycle;Max_cycle;Signal;HPM_P1;HPM_P2
2022/05/14 00:01:27;;;;;;;3.60;1.90;;;;;;;;;;5058081;28;20255;-34
2022/05/14 00:03:54;;;;;;;1.73;1.50;;;;;;;;;;5046691;28;20226;-32
2022/05/14 00:06:23;;;;;;;2.80;1.80;;;;;;;;;;5048836;28;20226;-34
2022/05/14 00:08:51;;;;;;;4.83;2.10;;;;;;;;;;5053364;28;20198;-34
2022/05/14 00:14:04;;;;;;;4.00;2.13;;;;;;;;;;5051919;28;20270;-29
2022/05/14 00:16:33;;;;;;;3.90;1.77;;;;;;;;;;5051064;28;20252;-37
2022/05/14 00:19:02;;;;;;;3.30;1.70;;;;;;;;;;5041423;28;20232;-36
2022/05/14 00:21:29;;;;;;;2.80;1.60;;;;;;;;;;5061200;28;20206;-32
2022/05/14 00:23:59;;;;;;;1.63;1.30;;;;;;;;;;5073216;28;20201;-33
2022/05/14 00:26:26;;;;;;;5.97;2.10;;;;;;;;;;5057143;28;20305;-34
2022/05/14 00:29:01;;;;;;;3.33;1.83;;;;;;;;;;5051093;28;20198;-39
2022/05/14 00:31:29;;;;;;;4.07;1.70;;;;;;;;;;5069165;28;20203;-37
2022/05/14 00:33:58;;;;;;;2.00;1.90;;;;;;;;;;5046181;28;20202;-34
2022/05/14 00:36:25;;;;;;;3.43;2.10;;;;;;;;;;5064100;28;20228;-38
2022/05/14 00:38:54;;;;;;;2.73;1.70;;;;;;;;;;5051871;28;20205;-32
2022/05/14 00:41:21;;;;;;;2.30;1.90;;;;;;;;;;5041803;28;20214;-33
2022/05/14 00:43:50;;;;;;;3.47;1.90;;;;;;;;;;5051714;28;20289;-36
2022/05/14 00:46:19;;;;;;;2.40;1.50;;;;;;;;;;5070307;28;20221;-36
2022/05/14 00:48:46;;;;;;;2.17;1.50;;;;;;;;;;5038205;28;20212;-36
2022/05/14 00:51:17;;;;;;;4.63;1.87;;;;;;;;;;5055751;28;20198;-39
2022/05/14 00:53:46;;;;;;;3.47;1.40;;;;;;;;;;5070652;28;20193;-36
2022/05/14 00:56:15;;;;;;;1.60;1.50;;;;;;;;;;5060803;28;20214;-37
2022/05/14 00:58:45;;;;;;;4.20;1.67;;;;;;;;;;5059376;28;20206;-31
2022/05/14 01:01:13;;;;;;;1.63;1.50;;;;;;;;;;5056256;28;20233;-37
2022/05/14 01:03:40;;;;;;;3.70;1.70;;;;;;;;;;5046702;28;20206;-38
2022/05/14 01:06:08;;;;;;;2.63;1.80;;;;;;;;;;5052603;28;20221;-32
2022/05/14 01:08:37;;;;;;;3.23;1.53;;;;;;;;;;5055901;28;20225;-33
2022/05/14 01:11:05;;;;;;;2.80;1.80;;;;;;;;;;5050897;28;20217;-32
2022/05/14 01:13:32;;;;;;;1.40;1.30;;;;;;;;;;5047734;28;20208;-31
2022/05/14 01:16:00;;;;;;;8.10;1.70;;;;;;;;;;5050930;28;20233;-36
2022/05/14 01:18:29;;;;;;;4.30;1.40;;;;;;;;;;5041375;28;20244;-39
2022/05/14 01:20:58;;;;;;;1.70;1.60;;;;;;;;;;5059248;28;20217;-37
2022/05/14 01:23:30;;;;;;;3.23;1.63;;;;;;;;;;5072255;28;20201;-37
2022/05/14 01:26:29;;;;;;;2.07;1.73;;;;;;;;;;5054275;28;20228;-37
2022/05/14 01:28:56;;;;;;;1.87;1.57;;;;;;;;;;5044709;28;20198;-39
2022/05/14 01:31:23;;;;;;;1.63;1.53;;;;;;;;;;5052316;28;20191;-37
2022/05/14 01:33:50;;;;;;;1.70;1.60;;;;;;;;;;5050646;28;20213;-35
2022/05/14 01:36:18;;;;;;;2.10;1.70;;;;;;;;;;5058443;28;20221;-35
2022/05/14 01:38:45;;;;;;;3.40;1.67;;;;;;;;;;5053834;28;20204;-38
2022/05/14 01:41:13;;;;;;;3.37;1.80;;;;;;;;;;5052826;28;20222;-33
2022/05/14 01:43:40;;;;;;;1.50;1.40;;;;;;;;;;5045678;28;20216;-35
2022/05/14 01:46:08;;;;;;;1.83;1.50;;;;;;;;;;5057253;28;20220;-33
2022/05/14 01:48:35;;;;;;;2.70;1.60;;;;;;;;;;5052598;28;20213;-38
2022/05/14 01:51:02;;;;;;;5.53;1.97;;;;;;;;;;5053518;28;20202;-34
2022/05/14 01:53:29;;;;;;;1.63;1.53;;;;;;;;;;5066353;28;20190;-35
2022/05/14 01:56:01;;;;;;;3.13;1.33;;;;;;;;;;5069867;28;20221;-34
2022/05/14 01:58:38;;;;;;;3.60;1.50;;;;;;;;;;5047748;28;20212;-35
2022/05/14 02:01:10;;;;;;;1.90;1.53;;;;;;;;;;5055385;28;20206;-39
2022/05/14 02:03:37;;;;;;;2.87;1.60;;;;;;;;;;5049398;28;20201;-35
2022/05/14 02:06:04;;;;;;;3.70;1.83;;;;;;;;;;5055761;28;20224;-37
2022/05/14 02:08:32;;;;;;;4.57;2.07;;;;;;;;;;5059411;28;20198;-30
2022/05/14 02:13:35;;;;;;;5.17;2.00;;;;;;;;;;5041945;28;20229;-28
2022/05/14 02:16:02;;;;;;;3.57;1.83;;;;;;;;;;5047626;28;20218;-29
2022/05/14 02:18:29;;;;;;;1.80;1.70;;;;;;;;;;5044911;28;20210;-28
2022/05/14 02:20:56;;;;;;;1.60;1.50;;;;;;;;;;5055067;28;20576;-28
2022/05/14 02:23:24;;;;;;;1.40;1.30;;;;;;;;;;5048957;28;20202;-29
2022/05/14 02:25:51;;;;;;;4.97;1.70;;;;;;;;;;5052790;28;20222;-28
2022/05/14 02:28:18;;;;;;;2.27;1.77;;;;;;;;;;5050079;28;20198;-28
2022/05/14 02:30:47;;;;;;;3.20;1.70;;;;;;;;;;5047402;28;20196;-30
2022/05/14 02:33:14;;;;;;;3.53;1.67;;;;;;;;;;5048483;28;20204;-30
2022/05/14 02:35:42;;;;;;;2.40;1.80;;;;;;;;;;5055096;28;20222;-28
2022/05/14 02:38:09;;;;;;;3.70;1.73;;;;;;;;;;5055613;28;20198;-29
2022/05/14 02:40:37;;;;;;;3.13;1.70;;;;;;;;;;5055548;28;20225;-32
2022/05/14 02:43:04;;;;;;;1.70;1.60;;;;;;;;;;5049086;28;20632;-29
2022/05/14 02:45:31;;;;;;;3.00;1.70;;;;;;;;;;5055139;28;20229;-28
2022/05/14 02:47:59;;;;;;;2.63;1.67;;;;;;;;;;5048973;28;20224;-31
2022/05/14 02:50:27;;;;;;;4.20;1.80;;;;;;;;;;5048802;28;20194;-31
2022/05/14 02:52:54;;;;;;;2.00;1.60;;;;;;;;;;5053855;28;20205;-29
2022/05/14 02:55:21;;;;;;;5.03;1.67;;;;;;;;;;5045167;28;20210;-32
2022/05/14 02:57:48;;;;;;;2.00;1.73;;;;;;;;;;5045861;28;20206;-29
2022/05/14 03:00:17;;;;;;;3.37;1.60;;;;;;;;;;5054786;28;20228;-29
2022/05/14 03:02:45;;;;;;;2.77;1.57;;;;;;;;;;5052625;28;20204;-32
2022/05/14 03:05:14;;;;;;;3.37;1.80;;;;;;;;;;5048505;28;20198;-31
2022/05/14 03:07:42;;;;;;;2.63;1.80;;;;;;;;;;5055251;28;20200;-31
2022/05/14 03:10:09;;;;;;;1.97;1.77;;;;;;;;;;5054713;28;20288;-29
2022/05/14 03:12:36;;;;;;;4.87;1.70;;;;;;;;;;5038616;28;20213;-32
2022/05/14 03:15:05;;;;;;;3.20;1.40;;;;;;;;;;5054253;28;20190;-28
2022/05/14 03:17:34;;;;;;;1.87;1.77;;;;;;;;;;5049940;28;20280;-32
2022/05/14 03:20:02;;;;;;;1.90;1.80;;;;;;;;;;5042217;28;20262;-28
2022/05/14 03:22:30;;;;;;;3.00;1.70;;;;;;;;;;5054639;28;20256;-32
2022/05/14 03:24:57;;;;;;;4.03;1.70;;;;;;;;;;5053012;28;20202;-27
2022/05/14 03:27:24;;;;;;;3.33;1.83;;;;;;;;;;5040868;28;20218;-31
2022/05/14 03:29:51;;;;;;;1.70;1.60;;;;;;;;;;5053374;28;20213;-29
2022/05/14 03:32:19;;;;;;;2.17;1.70;;;;;;;;;;5051391;28;20202;-28
2022/05/14 03:34:46;;;;;;;4.27;1.40;;;;;;;;;;5054107;28;20202;-28
2022/05/14 03:37:14;;;;;;;2.07;1.50;;;;;;;;;;5054554;28;20336;-29
2022/05/14 03:39:42;;;;;;;2.13;1.93;;;;;;;;;;5054419;28;20205;-29
2022/05/14 03:42:09;;;;;;;1.50;1.40;;;;;;;;;;5045185;28;20198;-31
2022/05/14 03:44:36;;;;;;;2.73;2.53;;;;;;;;;;5051149;28;20836;-29
2022/05/14 03:47:04;;;;;;;2.03;1.80;;;;;;;;;;5049628;28;20221;-32
2022/05/14 03:49:32;;;;;;;1.50;1.40;;;;;;;;;;5046408;28;20208;-29
2022/05/14 03:51:59;;;;;;;4.23;1.70;;;;;;;;;;5054277;28;20189;-32
2022/05/14 03:54:26;;;;;;;1.80;1.50;;;;;;;;;;5054081;28;20194;-29
2022/05/14 03:56:54;;;;;;;1.50;1.40;;;;;;;;;;5040575;28;20229;-30
2022/05/14 03:59:21;;;;;;;1.47;1.23;;;;;;;;;;5049050;28;20205;-28
2022/05/14 04:01:48;;;;;;;1.33;1.33;;;;;;;;;;5052419;28;20218;-31
2022/05/14 04:04:15;;;;;;;4.27;1.70;;;;;;;;;;5049024;28;20216;-29
2022/05/14 04:06:42;;;;;;;2.20;1.50;;;;;;;;;;5053439;28;20224;-31
2022/05/14 04:09:10;;;;;;;1.53;1.40;;;;;;;;;;5054149;28;20198;-30
2022/05/14 04:11:37;;;;;;;1.83;1.47;;;;;;;;;;5045600;28;20211;-28
2022/05/14 04:14:06;;;;;;;3.40;1.70;;;;;;;;;;5053461;28;20208;-31
2022/05/14 04:16:33;;;;;;;1.80;1.20;;;;;;;;;;5053661;28;20256;-29
2022/05/14 04:19:00;;;;;;;1.50;1.27;;;;;;;;;;5043997;28;20213;-31
2022/05/14 04:21:27;;;;;;;1.60;1.50;;;;;;;;;;5053195;28;20217;-29
2022/05/14 04:23:54;;;;;;;1.50;1.30;;;;;;;;;;5053189;28;20202;-30
2022/05/14 04:26:24;;;;;;;1.37;1.27;;;;;;;;;;5052095;28;20531;-29
2022/05/14 04:28:51;;;;;;;2.77;1.50;;;;;;;;;;5048953;28;20541;-30
2022/05/14 04:31:21;;;;;;;2.00;1.23;;;;;;;;;;5053343;28;20226;-31
2022/05/14 04:36:43;;;;;;;1.73;1.63;;;;;;;;;;5053464;28;20279;-29
2022/05/14 04:39:11;;;;;;;2.47;1.50;;;;;;;;;;5053204;28;20232;-27
2022/05/14 04:41:38;;;;;;;2.33;1.47;;;;;;;;;;5053026;28;20703;-29
2022/05/14 04:44:05;;;;;;;2.10;1.50;;;;;;;;;;5050467;28;20288;-31
2022/05/14 04:46:35;;;;;;;1.17;1.17;;;;;;;;;;5049419;28;20230;-31
2022/05/14 04:49:02;;;;;;;1.40;1.30;;;;;;;;;;5045356;28;20205;-30
2022/05/14 04:51:30;;;;;;;2.73;2.10;;;;;;;;;;5049182;28;20194;-27
2022/05/14 04:53:57;;;;;;;2.10;1.63;;;;;;;;;;5052926;28;20292;-29
2022/05/14 04:56:24;;;;;;;1.90;1.60;;;;;;;;;;5050878;28;20222;-28
2022/05/14 04:58:51;;;;;;;6.00;1.97;;;;;;;;;;5050230;28;20221;-29
2022/05/14 05:01:18;;;;;;;7.90;1.90;;;;;;;;;;5052322;28;20213;-32
2022/05/14 05:03:45;;;;;;;1.83;1.57;;;;;;;;;;5040050;28;20217;-32
2022/05/14 05:06:14;;;;;;;2.30;1.90;;;;;;;;;;5046935;28;20317;-26
2022/05/14 05:08:42;;;;;;;1.80;1.70;;;;;;;;;;5052904;28;20265;-30
2022/05/14 05:11:09;;;;;;;2.43;2.23;;;;;;;;;;5043176;28;20235;-29
2022/05/14 05:13:37;;;;;;;2.80;1.97;;;;;;;;;;5043181;28;20210;-29
2022/05/14 05:16:04;;;;;;;3.00;2.10;;;;;;;;;;5052734;28;20222;-30
2022/05/14 05:18:31;;;;;;;3.23;1.87;;;;;;;;;;5042909;28;20205;-32
2022/05/14 05:21:00;;;;;;;4.30;2.00;;;;;;;;;;5044576;28;20213;-28
2022/05/14 05:23:27;;;;;;;3.13;1.70;;;;;;;;;;5052390;28;20194;-31
2022/05/14 05:25:54;;;;;;;5.17;2.20;;;;;;;;;;5047779;28;20225;-31
2022/05/14 05:28:22;;;;;;;1.90;1.80;;;;;;;;;;5043438;28;20205;-29
2022/05/14 05:30:49;;;;;;;2.43;1.80;;;;;;;;;;5052773;28;20194;-28
2022/05/14 05:33:17;;;;;;;1.93;1.63;;;;;;;;;;5050231;28;20213;-30
2022/05/14 05:35:45;;;;;;;2.10;1.90;;;;;;;;;;5055163;28;20222;-28
2022/05/14 05:38:13;;;;;;;2.77;1.97;;;;;;;;;;5056442;28;20198;-28
2022/05/14 05:40:40;;;;;;;2.40;1.83;;;;;;;;;;5052570;28;20227;-27
2022/05/14 05:43:08;;;;;;;3.50;1.70;;;;;;;;;;5053892;28;20202;-30
2022/05/14 05:45:35;;;;;;;2.40;2.20;;;;;;;;;;5056135;28;20275;-30
2022/05/14 05:48:02;;;;;;;3.83;2.10;;;;;;;;;;5048968;28;20198;-30
2022/05/14 05:59:04;;;;;;;4.00;2.20;;;;;;;;;;5049176;28;20370;-30
2022/05/14 06:01:31;;;;;;;2.73;2.10;;;;;;;;;;5055682;28;20221;-29
2022/05/14 06:03:58;;;;;;;3.67;2.07;;;;;;;;;;5044170;28;20280;-28
2022/05/14 06:06:25;;;;;;;3.73;2.00;;;;;;;;;;5055805;28;20225;-27
2022/05/14 06:08:54;;;;;;;5.73;2.20;;;;;;;;;;5056281;28;20194;-28
2022/05/14 06:11:21;;;;;;;2.97;1.93;;;;;;;;;;5048532;28;20206;-27
2022/05/14 06:13:50;;;;;;;2.73;2.03;;;;;;;;;;5049678;28;20708;-29
2022/05/14 06:16:17;;;;;;;3.90;2.23;;;;;;;;;;5055708;28;20228;-29
2022/05/14 06:18:45;;;;;;;2.57;2.20;;;;;;;;;;5050366;28;20206;-28
2022/05/14 06:21:13;;;;;;;2.30;2.10;;;;;;;;;;5049684;28;20225;-29
2022/05/14 06:23:40;;;;;;;5.20;2.60;;;;;;;;;;5055632;28;20194;-28
2022/05/14 06:26:09;;;;;;;3.03;2.10;;;;;;;;;;5051705;28;20218;-29
2022/05/14 06:28:36;;;;;;;5.20;2.37;;;;;;;;;;5053460;28;20206;-31
2022/05/14 06:31:03;;;;;;;5.90;2.40;;;;;;;;;;5054027;28;20190;-30
2022/05/14 06:33:30;;;;;;;2.80;2.40;;;;;;;;;;5043854;28;20211;-31
2022/05/14 06:35:59;;;;;;;2.40;2.20;;;;;;;;;;5050520;28;20304;-29
2022/05/14 06:38:27;;;;;;;5.23;2.33;;;;;;;;;;5052841;28;20652;-32
2022/05/14 06:40:54;;;;;;;3.47;2.40;;;;;;;;;;5051418;28;20210;-32
2022/05/14 06:43:22;;;;;;;3.73;2.23;;;;;;;;;;5054113;28;20236;-27
2022/05/14 06:45:49;;;;;;;6.00;2.07;;;;;;;;;;5054745;28;20222;-30
2022/05/14 06:48:17;;;;;;;2.17;1.90;;;;;;;;;;5045102;28;20209;-32
2022/05/14 06:50:46;;;;;;;5.03;1.97;;;;;;;;;;5047186;28;20210;-30
2022/05/14 06:53:14;;;;;;;2.77;2.10;;;;;;;;;;5054812;28;20192;-29
2022/05/14 06:55:42;;;;;;;3.90;1.90;;;;;;;;;;5047853;28;20235;-31
2022/05/14 06:58:11;;;;;;;4.17;2.20;;;;;;;;;;5048135;28;20204;-28
2022/05/14 07:00:39;;;;;;;3.23;2.07;;;;;;;;;;5055147;28;20211;-28
2022/05/14 07:08:36;;;;;;;2.00;1.80;;;;;;;;;;5054912;28;20185;-28
2022/05/14 07:11:03;;;;;;;3.00;1.77;;;;;;;;;;5051401;28;20198;-30
2022/05/14 07:13:31;;;;;;;3.97;2.10;;;;;;;;;;5050338;28;20217;-29
2022/05/14 07:15:59;;;;;;;2.22;2.00;;;;;;;;;;5054712;28;20218;-29
2022/05/14 07:18:26;;;;;;;4.67;2.10;;;;;;;;;;5048383;28;20208;-29
2022/05/14 07:20:54;;;;;;;5.67;1.93;;;;;;;;;;5048221;28;20205;-28
2022/05/14 07:23:21;;;;;;;3.55;2.17;;;;;;;;;;5055096;28;20206;-29
2022/05/14 07:25:49;;;;;;;5.63;2.50;;;;;;;;;;5054916;28;20230;-31
2022/05/14 07:28:16;;;;;;;3.97;2.07;;;;;;;;;;5043044;28;20202;-31
2022/05/14 07:30:43;;;;;;;2.28;1.98;;;;;;;;;;5045310;28;20220;-30
2022/05/14 07:33:12;;;;;;;3.45;1.90;;;;;;;;;;5048795;28;20197;-29
2022/05/14 07:35:40;;;;;;;4.00;1.80;;;;;;;;;;5049248;28;20244;-28
2022/05/14 07:38:07;;;;;;;3.58;1.90;;;;;;;;;;5045243;28;20202;-28
2022/05/14 07:40:36;;;;;;;4.75;1.63;;;;;;;;;;5053755;28;20201;-29
2022/05/14 07:43:05;;;;;;;5.47;2.22;;;;;;;;;;5054024;28;20225;-31
2022/05/14 07:45:34;;;;;;;2.25;1.73;;;;;;;;;;5049865;28;20221;-31
2022/05/14 07:48:02;;;;;;;2.67;1.77;;;;;;;;;;5039853;28;20197;-28
2022/05/14 07:50:31;;;;;;;5.25;2.10;;;;;;;;;;5049650;28;20212;-29
2022/05/14 07:52:58;;;;;;;3.63;1.85;;;;;;;;;;5053361;28;20202;-29
2022/05/14 07:55:28;;;;;;;2.25;1.90;;;;;;;;;;5051250;28;20572;-30
2022/05/14 07:57:55;;;;;;;2.50;1.67;;;;;;;;;;5043072;28;20225;-30
2022/05/14 08:00:23;;;;;;;2.05;1.63;;;;;;;;;;5053903;28;20276;-28
2022/05/14 08:02:50;;;;;;;3.35;1.60;;;;;;;;;;5047020;28;20254;-29
2022/05/14 08:05:20;;;;;;;2.83;1.42;;;;;;;;;;5053404;28;20208;-31
2022/05/14 08:07:48;;;;;;;3.67;1.55;;;;;;;;;;5053850;28;20200;-32
2022/05/14 08:10:16;;;;;;;3.87;1.70;;;;;;;;;;5053528;28;20201;-32
2022/05/14 08:15:12;;;;;;;2.90;1.45;;;;;;;;;;5051308;28;20218;-38
2022/05/14 08:17:39;;;;;;;7.07;1.33;;;;;;;;;;5042997;28;20255;-38
2022/05/14 08:20:25;;;;;;;4.82;2.28;;;;;;;;;;5042266;28;20202;-38
2022/05/14 08:25:38;;;;;;;4.40;1.48;;;;;;;;;;5035449;28;20229;-35
2022/05/14 08:28:06;;;;;;;3.05;1.30;;;;;;;;;;5053192;28;20397;-38
2022/05/14 08:30:34;;;;;;;1.35;1.20;;;;;;;;;;5053614;28;20206;-37
2022/05/14 08:33:02;;;;;;;2.20;1.23;;;;;;;;;;5041696;28;20201;-31
2022/05/14 08:35:29;;;;;;;6.07;1.88;;;;;;;;;;5049025;28;20229;-31
2022/05/14 08:37:58;;;;;;;2.38;1.20;;;;;;;;;;5052945;28;20201;-33
2022/05/14 08:40:28;;;;;;;2.85;1.15;;;;;;;;;;5045855;28;20202;-35
2022/05/14 08:42:56;;;;;;;3.00;1.38;;;;;;;;;;5052401;28;20209;-33
2022/05/14 08:45:25;;;;;;;5.65;0.95;;;;;;;;;;5052778;28;20230;-31
2022/05/14 08:47:56;;;;;;;1.83;0.70;;;;;;;;;;5042022;28;20225;-32
2022/05/14 08:50:25;;;;;;;1.30;0.98;;;;;;;;;;5050159;28;20229;-34
2022/05/14 08:52:55;;;;;;;2.00;1.08;;;;;;;;;;5052089;28;20198;-29
2022/05/14 08:55:24;;;;;;;2.80;1.27;;;;;;;;;;5045971;28;20225;-33
2022/05/14 08:57:58;;;;;;;5.95;1.25;;;;;;;;;;5039931;28;20217;-35
2022/05/14 09:00:26;;;;;;;4.10;1.30;;;;;;;;;;5052698;28;20209;-34
2022/05/14 09:02:54;;;;;;;1.67;1.17;;;;;;;;;;5046640;28;20228;-34
2022/05/14 09:05:23;;;;;;;3.20;1.20;;;;;;;;;;5052270;28;20229;-34
2022/05/14 09:07:50;;;;;;;1.73;1.10;;;;;;;;;;5052648;28;20210;-30
2022/05/14 09:10:23;;;;;;;3.63;1.17;;;;;;;;;;5053027;28;20259;-33
2022/05/14 09:12:53;;;;;;;1.65;1.05;;;;;;;;;;5045898;28;20201;-32
2022/05/14 09:15:20;;;;;;;3.63;0.80;;;;;;;;;;5047494;28;20190;-36
2022/05/14 09:17:47;;;;;;;5.68;1.15;;;;;;;;;;5047568;28;20205;-37
2022/05/14 09:20:25;;;;;;;1.30;0.87;;;;;;;;;;5045909;28;20211;-33
2022/05/14 09:22:55;;;;;;;4.67;0.93;;;;;;;;;;5052574;28;20209;-35
2022/05/14 09:25:25;;;;;;;3.13;0.82;;;;;;;;;;5049223;28;20233;-33
2022/05/14 09:27:56;;;;;;;1.90;1.10;;;;;;;;;;5051619;28;20201;-32
2022/05/14 09:30:25;;;;;;;4.90;0.90;;;;;;;;;;5052928;28;20209;-38
2022/05/14 09:32:53;;;;;;;1.20;0.90;;;;;;;;;;5047173;28;20314;-31
2022/05/14 09:35:22;;;;;;;3.20;1.00;;;;;;;;;;5046323;28;20235;-38
2022/05/14 09:37:49;;;;;;;1.83;0.90;;;;;;;;;;5052823;28;20225;-35
2022/05/14 09:40:21;;;;;;;2.47;0.83;;;;;;;;;;5032902;28;20217;-35
2022/05/14 09:42:50;;;;;;;2.00;0.90;;;;;;;;;;5040169;28;20225;-35
2022/05/14 09:45:26;;;;;;;3.17;1.40;;;;;;;;;;5048212;28;20239;-31
2022/05/14 09:47:54;;;;;;;1.92;1.05;;;;;;;;;;5044483;28;20194;-31
2022/05/14 09:50:24;;;;;;;3.87;1.10;;;;;;;;;;5051987;28;20228;-33
2022/05/14 09:52:56;;;;;;;1.33;1.00;;;;;;;;;;5051932;28;20200;-36
2022/05/14 09:55:25;;;;;;;5.13;1.47;;;;;;;;;;5049171;28;20204;-37
2022/05/14 09:57:57;;;;;;;3.43;1.07;;;;;;;;;;5042240;28;20213;-34
2022/05/14 10:00:28;;;;;;;2.60;1.10;;;;;;;;;;5051838;28;20205;-36
2022/05/14 10:02:59;;;;;;;4.13;1.07;;;;;;;;;;5046698;28;20301;-32
2022/05/14 10:05:36;;;;;;;3.50;1.43;;;;;;;;;;5045506;28;20312;-33
2022/05/14 10:08:09;;;;;;;3.07;1.23;;;;;;;;;;5044524;28;20204;-35
2022/05/14 10:10:42;;;;;;;2.13;1.20;;;;;;;;;;5049625;28;20209;-38
2022/05/14 10:13:13;;;;;;;2.10;0.90;;;;;;;;;;5045103;28;20208;-39
2022/05/14 10:15:45;;;;;;;1.50;1.00;;;;;;;;;;5051644;28;20228;-36
2022/05/14 10:18:16;;;;;;;2.53;1.17;;;;;;;;;;5045903;28;20229;-33
2022/05/14 10:20:47;;;;;;;5.40;1.63;;;;;;;;;;5046973;28;20205;-34
2022/05/14 10:28:58;;;;;;;4.57;1.40;;;;;;;;;;5055772;28;20330;-35
2022/05/14 10:31:32;;;;;;;1.93;1.20;;;;;;;;;;5056624;28;20212;-39
2022/05/14 10:34:03;;;;;;;2.97;1.40;;;;;;;;;;5043459;28;20200;-36
2022/05/14 10:36:33;;;;;;;2.47;1.17;;;;;;;;;;5052389;28;20281;-32
2022/05/14 10:39:21;;;;;;;5.80;1.40;;;;;;;;;;5039196;28;20193;-31
2022/05/14 10:41:50;;;;;;;3.87;1.50;;;;;;;;;;5052857;28;20219;-31
2022/05/14 10:44:19;;;;;;;2.70;1.60;;;;;;;;;;5055805;28;20295;-32
2022/05/14 10:46:48;;;;;;;3.80;1.10;;;;;;;;;;5054012;28;20227;-33
2022/05/14 10:49:19;;;;;;;2.97;1.23;;;;;;;;;;5045798;28;20212;-32
2022/05/14 10:51:48;;;;;;;5.50;1.37;;;;;;;;;;5053513;28;20208;-35
2022/05/14 10:54:23;;;;;;;3.73;1.40;;;;;;;;;;5054689;28;20325;-32
2022/05/14 10:56:55;;;;;;;2.20;1.30;;;;;;;;;;5044334;28;20234;-32
2022/05/14 10:59:33;;;;;;;4.30;1.43;;;;;;;;;;5053463;28;20241;-36
2022/05/14 11:02:03;;;;;;;3.30;1.30;;;;;;;;;;5052935;28;20212;-33
2022/05/14 11:04:32;;;;;;;2.57;1.30;;;;;;;;;;5050298;28;20209;-35
2022/05/14 11:07:00;;;;;;;3.53;1.40;;;;;;;;;;5054499;28;20217;-38
2022/05/14 11:09:39;;;;;;;1.20;1.10;;;;;;;;;;5054773;28;20208;-37
2022/05/14 11:12:08;;;;;;;2.90;1.40;;;;;;;;;;5035551;28;20241;-31
2022/05/14 11:14:44;;;;;;;1.73;1.43;;;;;;;;;;5048418;28;20220;-33
2022/05/14 11:17:21;;;;;;;2.87;1.30;;;;;;;;;;5047809;28;20231;-35
2022/05/14 11:19:49;;;;;;;4.20;1.30;;;;;;;;;;5040998;28;20204;-33
2022/05/14 11:22:20;;;;;;;3.87;1.30;;;;;;;;;;5053459;28;20240;-36
2022/05/14 11:24:47;;;;;;;2.50;1.30;;;;;;;;;;5054346;28;20216;-33
2022/05/14 11:27:25;;;;;;;5.37;1.90;;;;;;;;;;5049971;28;20219;-29
2022/05/14 11:29:54;;;;;;;3.23;1.47;;;;;;;;;;5049932;28;20205;-32
2022/05/14 11:32:23;;;;;;;5.33;1.53;;;;;;;;;;5041403;28;20207;-34
2022/05/14 11:34:53;;;;;;;4.63;1.40;;;;;;;;;;5052397;28;20205;-33
2022/05/14 11:37:28;;;;;;;2.57;1.57;;;;;;;;;;5054310;28;20281;-36
2022/05/14 11:40:04;;;;;;;3.13;1.73;;;;;;;;;;5050237;28;20208;-32
2022/05/14 11:42:32;;;;;;;2.77;1.10;;;;;;;;;;5042550;28;20242;-34
2022/05/14 11:45:05;;;;;;;3.13;1.40;;;;;;;;;;5049334;28;20204;-35
2022/05/14 11:47:46;;;;;;;1.87;1.23;;;;;;;;;;5046061;28;20213;-34
2022/05/14 11:50:14;;;;;;;4.93;1.60;;;;;;;;;;5041202;28;20255;-32
2022/05/14 11:52:47;;;;;;;2.60;1.40;;;;;;;;;;5052888;28;20202;-33
2022/05/14 11:55:17;;;;;;;3.20;1.20;;;;;;;;;;5050604;28;20209;-33
2022/05/14 11:57:46;;;;;;;3.60;1.10;;;;;;;;;;5043607;28;20205;-35
2022/05/14 12:00:15;;;;;;;3.57;1.60;;;;;;;;;;5053219;28;20207;-33
2022/05/14 12:02:46;;;;;;;3.50;1.13;;;;;;;;;;5047596;28;20308;-34
2022/05/14 12:05:16;;;;;;;1.77;1.20;;;;;;;;;;5052308;28;20212;-35
2022/05/14 12:07:51;;;;;;;2.90;1.50;;;;;;;;;;5052171;28;20206;-32
2022/05/14 12:10:24;;;;;;;1.30;1.20;;;;;;;;;;5052879;28;20206;-38
2022/05/14 12:12:54;;;;;;;2.17;1.30;;;;;;;;;;5042429;28;20210;-36
2022/05/14 12:15:24;;;;;;;2.07;1.50;;;;;;;;;;5047764;28;20204;-35
2022/05/14 12:17:58;;;;;;;1.47;0.97;;;;;;;;;;5045921;28;20311;-34
2022/05/14 12:20:26;;;;;;;2.23;1.53;;;;;;;;;;5046948;28;20207;-34
2022/05/14 12:22:55;;;;;;;3.10;1.30;;;;;;;;;;5052436;28;20228;-33
2022/05/14 12:25:22;;;;;;;3.10;1.20;;;;;;;;;;5048697;28;20204;-35
2022/05/14 12:27:51;;;;;;;9.13;1.57;;;;;;;;;;5050216;28;20219;-33
2022/05/14 12:33:14;;;;;;;1.40;1.30;;;;;;;;;;5056663;28;20212;-37
2022/05/14 12:35:43;;;;;;;2.27;1.20;;;;;;;;;;5046268;28;20230;-33
2022/05/14 12:38:12;;;;;;;1.77;0.93;;;;;;;;;;5053114;28;20252;-33
2022/05/14 12:40:42;;;;;;;2.37;1.00;;;;;;;;;;5052843;28;20209;-35
2022/05/14 12:43:14;;;;;;;3.17;1.10;;;;;;;;;;5042397;28;20229;-34
2022/05/14 12:45:43;;;;;;;4.67;1.40;;;;;;;;;;5051655;28;20221;-33
2022/05/14 12:48:12;;;;;;;1.80;1.20;;;;;;;;;;5045741;28;20208;-32
2022/05/14 12:50:44;;;;;;;1.77;1.40;;;;;;;;;;5049111;28;20219;-37
2022/05/14 12:53:13;;;;;;;3.83;1.43;;;;;;;;;;5052928;28;20206;-31
2022/05/14 12:55:42;;;;;;;3.07;1.40;;;;;;;;;;5051370;28;20260;-32
2022/05/14 12:58:10;;;;;;;2.63;1.10;;;;;;;;;;5048514;28;20206;-34
2022/05/14 13:00:38;;;;;;;2.17;0.93;;;;;;;;;;5057623;28;20202;-33
2022/05/14 13:03:09;;;;;;;1.97;1.10;;;;;;;;;;5045193;28;20229;-38
2022/05/14 13:05:38;;;;;;;4.40;1.20;;;;;;;;;;5053080;28;20311;-33
2022/05/14 13:08:12;;;;;;;3.17;1.10;;;;;;;;;;5052494;28;20209;-33
2022/05/14 13:10:39;;;;;;;6.10;1.43;;;;;;;;;;5052302;28;20201;-36
2022/05/14 13:13:09;;;;;;;3.30;1.20;;;;;;;;;;5038356;28;20194;-39
2022/05/14 13:15:38;;;;;;;1.70;1.40;;;;;;;;;;5048978;28;20225;-32
2022/05/14 13:18:12;;;;;;;2.40;1.20;;;;;;;;;;5039654;28;20197;-35
2022/05/14 13:20:39;;;;;;;3.30;1.23;;;;;;;;;;5044010;28;20252;-34
2022/05/14 13:23:13;;;;;;;2.43;1.37;;;;;;;;;;5050570;28;20221;-33
2022/05/14 13:25:40;;;;;;;2.07;1.20;;;;;;;;;;5044691;28;20228;-30
2022/05/14 13:28:11;;;;;;;1.53;1.30;;;;;;;;;;5047853;28;20202;-33
2022/05/14 13:30:38;;;;;;;1.83;1.40;;;;;;;;;;5035328;28;20271;-35
2022/05/14 13:33:06;;;;;;;2.67;1.27;;;;;;;;;;5039842;28;20206;-37
2022/05/14 13:38:20;;;;;;;5.37;1.57;;;;;;;;;;5046251;28;20192;-36
2022/05/14 13:40:48;;;;;;;3.23;1.10;;;;;;;;;;5051545;28;20230;-34
2022/05/14 13:43:18;;;;;;;2.60;1.27;;;;;;;;;;5048918;28;20226;-30
2022/05/14 13:45:47;;;;;;;3.87;1.40;;;;;;;;;;5041478;28;20232;-37
2022/05/14 13:48:19;;;;;;;1.43;1.23;;;;;;;;;;5042927;28;20198;-35
2022/05/14 13:50:54;;;;;;;1.97;1.20;;;;;;;;;;5045511;28;20262;-35
2022/05/14 13:53:24;;;;;;;2.97;1.30;;;;;;;;;;5052680;28;20206;-39
2022/05/14 13:55:59;;;;;;;2.27;1.03;;;;;;;;;;5045335;28;20233;-35
2022/05/14 13:58:29;;;;;;;1.53;1.00;;;;;;;;;;5052941;28;20233;-36
2022/05/14 14:00:59;;;;;;;1.40;0.90;;;;;;;;;;5032017;28;20210;-38
2022/05/14 14:03:29;;;;;;;3.03;1.33;;;;;;;;;;5036229;28;20233;-30
2022/05/14 14:05:56;;;;;;;3.43;1.07;;;;;;;;;;5052733;28;20267;-34
2022/05/14 14:08:27;;;;;;;1.33;1.10;;;;;;;;;;5052732;28;20285;-37
2022/05/14 14:10:55;;;;;;;1.93;0.80;;;;;;;;;;5040289;28;20652;-33
2022/05/14 14:13:22;;;;;;;1.90;1.00;;;;;;;;;;5314981;22;20241;-31
2022/05/14 14:15:52;;;;;;;5.33;1.10;;;;;;;;;;5076430;28;20217;-28
2022/05/14 14:18:19;;;;;;;1.30;1.03;;;;;;;;;;5065933;28;20220;-30
2022/05/14 14:20:48;;;;;;;1.97;1.00;;;;;;;;;;5066172;28;20208;-31
2022/05/14 14:23:17;;;;;;;1.23;0.80;;;;;;;;;;5074729;28;20212;-28
2022/05/14 14:25:46;;;;;;;2.17;1.13;;;;;;;;;;5075658;28;20224;-29
2022/05/14 14:28:14;;;;;;;1.57;0.90;;;;;;;;;;5067695;28;20201;-29
2022/05/14 14:30:42;;;;;;;3.03;1.20;;;;;;;;;;5071809;28;20205;-30
2022/05/14 14:33:09;;;;;;;3.37;1.10;;;;;;;;;;5068513;28;20661;-32
2022/05/14 14:35:37;;;;;;;2.10;0.90;;;;;;;;;;5067404;28;20228;-30
2022/05/14 14:38:04;;;;;;;1.10;1.00;;;;;;;;;;5064141;28;20219;-27
2022/05/14 14:40:31;;;;;;;1.67;0.73;;;;;;;;;;5071522;28;20228;-30
2022/05/14 14:43:01;;;;;;;4.50;1.00;;;;;;;;;;5075476;28;20216;-31
2022/05/14 14:45:28;;;;;;;3.20;0.90;;;;;;;;;;5072034;28;20546;-30
2022/05/14 14:47:56;;;;;;;1.30;1.03;;;;;;;;;;5064374;28;20212;-30
2022/05/14 14:50:25;;;;;;;2.40;1.07;;;;;;;;;;5074435;28;20227;-31
2022/05/14 14:52:52;;;;;;;2.03;1.20;;;;;;;;;;5074423;28;20251;-31
2022/05/14 14:55:19;;;;;;;4.17;1.13;;;;;;;;;;5065645;28;20208;-28
2022/05/14 14:57:47;;;;;;;2.50;1.10;;;;;;;;;;5072448;28;20228;-31
2022/05/14 15:00:17;;;;;;;1.90;1.00;;;;;;;;;;5074400;28;20203;-27
2022/05/14 15:02:48;;;;;;;1.67;1.20;;;;;;;;;;5068127;28;20696;-31
2022/05/14 15:05:16;;;;;;;2.13;1.27;;;;;;;;;;5067837;28;20227;-30
2022/05/14 15:07:43;;;;;;;1.83;0.83;;;;;;;;;;5073849;28;20208;-29
2022/05/14 15:10:12;;;;;;;2.20;1.03;;;;;;;;;;5074605;28;20220;-30
2022/05/14 15:12:40;;;;;;;1.47;1.10;;;;;;;;;;5060004;28;20202;-28
2022/05/14 15:15:07;;;;;;;1.60;1.07;;;;;;;;;;5070262;28;20189;-29
2022/05/14 15:17:36;;;;;;;2.50;1.00;;;;;;;;;;5068627;28;20209;-31
2022/05/14 15:20:04;;;;;;;1.10;0.90;;;;;;;;;;5067475;28;20552;-31
2022/05/14 15:22:31;;;;;;;1.67;0.80;;;;;;;;;;5074095;28;20209;-29
2022/05/14 15:25:00;;;;;;;3.27;0.80;;;;;;;;;;5074711;28;20228;-29
2022/05/14 15:27:27;;;;;;;1.37;0.70;;;;;;;;;;5063667;28;20229;-29
2022/05/14 15:29:54;;;;;;;1.77;0.80;;;;;;;;;;5073695;28;20197;-30
2022/05/14 15:32:23;;;;;;;3.13;1.30;;;;;;;;;;5068696;28;20223;-31